Time;durP1;ratioP1;P1;durP2;ratioP2;P2;SDS_P1;SDS_P2;PMS_P1;PMS_P2;Temp;Humidity;BMP_temperature;BMP_pressure;BME280_temperature;BME280_humidity;BME280_pressure;Samples;Min_cycle;Max_cycle;Signal;HPM_P1;HPM_P2
2021/03/04 00:00:35;;;;;;;1999.90;999.90;;;18.90;91.20;;;;;;5052475;28;20172;-41
2021/03/04 00:03:06;;;;;;;1999.90;999.90;;;18.90;91.40;;;;;;5052385;28;20188;-43
2021/03/04 00:05:34;;;;;;;1999.90;999.90;;;19.00;92.10;;;;;;5052443;28;20640;-41
2021/03/04 00:08:01;;;;;;;1999.90;999.90;;;19.00;92.10;;;;;;5052424;28;20165;-42
2021/03/04 00:10:28;;;;;;;1999.90;999.90;;;19.00;92.30;;;;;;5052405;28;20219;-41
2021/03/04 00:12:56;;;;;;;1999.90;999.90;;;19.00;92.30;;;;;;5052472;28;20660;-41
2021/03/04 00:15:25;;;;;;;1999.90;999.90;;;19.00;92.30;;;;;;5052265;28;20166;-43
2021/03/04 00:17:52;;;;;;;1999.90;999.90;;;19.00;92.10;;;;;;5052265;28;20192;-41
2021/03/04 00:20:24;;;;;;;1999.90;999.90;;;19.00;92.30;;;;;;5052211;28;20184;-42
2021/03/04 00:22:51;;;;;;;1999.90;999.90;;;18.90;92.60;;;;;;5052347;28;20189;-42
2021/03/04 00:25:19;;;;;;;1999.90;999.90;;;18.90;92.70;;;;;;5052239;28;20165;-42
2021/03/04 00:27:47;;;;;;;1999.90;999.90;;;18.90;93.00;;;;;;5052216;28;20165;-42
2021/03/04 00:30:17;;;;;;;1999.90;999.90;;;18.90;92.80;;;;;;5052139;28;20629;-42
2021/03/04 00:32:44;;;;;;;1999.90;999.90;;;18.90;92.90;;;;;;5055513;28;20328;-42
2021/03/04 00:35:11;;;;;;;1999.90;999.90;;;19.00;93.00;;;;;;5055710;28;20181;-41
2021/03/04 00:37:38;;;;;;;1999.90;999.90;;;19.00;93.40;;;;;;5055740;28;20169;-50
2021/03/04 00:40:11;;;;;;;1999.90;999.90;;;18.90;93.20;;;;;;5055657;28;20177;-41
2021/03/04 00:42:38;;;;;;;1999.90;999.90;;;18.80;92.60;;;;;;5055682;28;20161;-41
2021/03/04 00:45:09;;;;;;;1999.90;999.90;;;18.80;92.90;;;;;;5055555;28;20227;-41
2021/03/04 00:47:37;;;;;;;1999.90;999.90;;;18.80;93.00;;;;;;5055527;28;20172;-41
2021/03/04 00:50:06;;;;;;;1999.90;999.90;;;18.70;93.00;;;;;;5055441;28;20261;-41
2021/03/04 00:52:33;;;;;;;1999.90;999.90;;;18.80;93.20;;;;;;5055459;28;20211;-40
2021/03/04 00:55:00;;;;;;;1999.90;999.90;;;18.80;93.30;;;;;;5055475;28;20256;-42
2021/03/04 00:57:27;;;;;;;1999.90;999.90;;;18.70;93.30;;;;;;5055395;28;20173;-42
2021/03/04 00:59:54;;;;;;;1999.90;999.90;;;18.70;93.30;;;;;;5055257;28;20196;-41
2021/03/04 01:02:20;;;;;;;1999.90;999.90;;;18.60;93.20;;;;;;5055277;28;20184;-41
2021/03/04 01:04:47;;;;;;;1999.90;999.90;;;18.70;93.20;;;;;;5055195;28;20165;-43
2021/03/04 01:07:15;;;;;;;1999.90;999.90;;;18.70;93.20;;;;;;5055154;28;20177;-43
2021/03/04 01:09:41;;;;;;;1999.90;999.90;;;18.70;93.40;;;;;;5055151;28;20172;-43
2021/03/04 01:12:09;;;;;;;1999.90;999.90;;;18.60;93.60;;;;;;5054976;28;20334;-43
2021/03/04 01:14:36;;;;;;;1999.90;999.90;;;18.60;93.60;;;;;;5055088;28;20306;-43
2021/03/04 01:17:04;;;;;;;1999.90;999.90;;;18.60;93.80;;;;;;5055071;28;20620;-42
2021/03/04 01:19:31;;;;;;;1999.90;999.90;;;18.50;94.10;;;;;;5055107;28;20165;-42
2021/03/04 01:21:57;;;;;;;1999.90;999.90;;;18.50;94.30;;;;;;5054927;28;20168;-42
2021/03/04 01:24:24;;;;;;;1999.90;999.90;;;18.50;94.30;;;;;;5054849;28;20254;-42
2021/03/04 01:26:51;;;;;;;1999.90;999.90;;;18.50;94.50;;;;;;5054806;28;20632;-42
2021/03/04 01:29:18;;;;;;;1999.90;999.90;;;18.50;94.30;;;;;;5054777;28;20165;-42
2021/03/04 01:31:44;;;;;;;1999.90;999.90;;;18.50;94.30;;;;;;5054430;28;20695;-42
2021/03/04 01:34:16;;;;;;;1999.90;999.90;;;18.50;94.50;;;;;;5054592;28;20216;-42
2021/03/04 01:36:43;;;;;;;1999.90;999.90;;;18.40;94.90;;;;;;5054556;28;20177;-42
2021/03/04 01:39:10;;;;;;;1999.90;999.90;;;18.30;95.40;;;;;;5054811;28;20260;-42
2021/03/04 01:41:37;;;;;;;1999.90;999.90;;;18.20;95.70;;;;;;5054559;28;20173;-42
2021/03/04 01:44:04;;;;;;;1999.90;999.90;;;18.20;95.80;;;;;;5054563;28;20203;-42
2021/03/04 01:46:32;;;;;;;1999.90;999.90;;;18.20;95.70;;;;;;5054433;28;20169;-42
2021/03/04 01:48:59;;;;;;;1999.90;999.90;;;18.30;95.70;;;;;;5054317;28;20173;-42
2021/03/04 01:51:26;;;;;;;1999.90;999.90;;;18.30;96.10;;;;;;5054279;28;20283;-42
2021/03/04 01:53:53;;;;;;;1999.90;999.90;;;18.10;97.20;;;;;;5054181;28;20181;-42
2021/03/04 01:56:20;;;;;;;1999.90;999.90;;;18.10;97.70;;;;;;5054231;28;20165;-42
2021/03/04 01:58:47;;;;;;;1999.90;999.90;;;18.10;98.10;;;;;;5054178;28;20219;-42
2021/03/04 02:01:13;;;;;;;1999.90;999.90;;;18.00;98.40;;;;;;5054151;28;20639;-42
2021/03/04 02:03:40;;;;;;;1999.90;999.90;;;18.00;98.90;;;;;;5054130;28;20169;-42
2021/03/04 02:06:08;;;;;;;1999.90;999.90;;;18.00;98.90;;;;;;5054158;28;20208;-42
2021/03/04 02:08:45;;;;;;;1999.90;999.90;;;17.90;99.00;;;;;;5054110;28;20169;-41
2021/03/04 02:11:23;;;;;;;1999.90;999.90;;;17.90;99.00;;;;;;5053852;28;20280;-41
2021/03/04 02:14:13;;;;;;;1999.90;999.90;;;17.90;99.30;;;;;;5053924;28;20157;-42
2021/03/04 02:16:59;;;;;;;1999.90;999.90;;;17.90;99.20;;;;;;5053868;28;20245;-42
2021/03/04 02:19:50;;;;;;;1999.90;999.90;;;17.90;99.30;;;;;;5053778;28;20170;-42
2021/03/04 02:22:32;;;;;;;1999.90;999.90;;;17.90;99.10;;;;;;5053702;28;20158;-40
2021/03/04 02:25:33;;;;;;;1999.90;999.90;;;17.90;99.00;;;;;;5053774;28;20168;-44
2021/03/04 02:28:01;;;;;;;1999.90;999.90;;;17.90;99.00;;;;;;5053652;28;20176;-44
2021/03/04 02:30:33;;;;;;;1999.90;999.90;;;17.90;99.00;;;;;;5053443;28;20648;-42
2021/03/04 02:33:19;;;;;;;1999.90;999.90;;;18.00;99.00;;;;;;5053394;28;20585;-42
2021/03/04 02:35:47;;;;;;;1999.90;999.90;;;18.00;98.80;;;;;;5053566;28;20168;-43
2021/03/04 02:38:19;;;;;;;1999.90;999.90;;;18.00;99.00;;;;;;5053456;28;20173;-43
2021/03/04 02:40:48;;;;;;;1999.90;999.90;;;18.00;99.10;;;;;;5053376;28;20209;-43
2021/03/04 02:43:17;;;;;;;1999.90;999.90;;;18.10;99.00;;;;;;5053419;28;20167;-43
2021/03/04 02:45:45;;;;;;;1999.90;999.90;;;18.10;99.00;;;;;;5053371;28;20180;-43
2021/03/04 02:48:18;;;;;;;1999.90;999.90;;;18.20;98.80;;;;;;5053426;28;20169;-43
2021/03/04 02:50:47;;;;;;;1999.90;999.90;;;18.20;98.80;;;;;;5053220;28;20196;-42
2021/03/04 02:53:15;;;;;;;1999.90;999.90;;;18.20;98.60;;;;;;5052940;28;20243;-44
2021/03/04 02:55:42;;;;;;;1999.90;999.90;;;18.30;98.30;;;;;;5052013;28;20174;-43
2021/03/04 02:58:11;;;;;;;1999.90;999.90;;;18.40;98.20;;;;;;5053262;28;20627;-42
2021/03/04 03:00:39;;;;;;;1999.90;999.90;;;18.40;98.10;;;;;;5053110;28;20540;-44
2021/03/04 03:03:12;;;;;;;1999.90;999.90;;;18.40;98.00;;;;;;5053016;28;20662;-42
2021/03/04 03:05:40;;;;;;;1999.90;999.90;;;18.40;97.90;;;;;;5053146;28;20275;-42
2021/03/04 03:08:08;;;;;;;1999.90;999.90;;;18.50;97.90;;;;;;5052956;28;20169;-42
2021/03/04 03:10:36;;;;;;;1999.90;999.90;;;18.50;97.90;;;;;;5052944;28;20169;-42
2021/03/04 03:13:04;;;;;;;1999.90;999.90;;;18.50;97.80;;;;;;5052902;28;20177;-42
2021/03/04 03:15:30;;;;;;;1999.90;999.90;;;18.60;97.60;;;;;;5052907;28;20252;-42
2021/03/04 03:17:57;;;;;;;1999.90;999.90;;;18.70;97.40;;;;;;5052832;28;20183;-47
2021/03/04 03:20:25;;;;;;;1999.90;999.90;;;18.70;97.30;;;;;;5052828;28;20165;-41
2021/03/04 03:22:53;;;;;;;1999.90;999.90;;;18.70;96.90;;;;;;5052857;28;20193;-42
2021/03/04 03:25:20;;;;;;;1999.90;999.90;;;18.80;96.80;;;;;;5052805;28;20169;-41
2021/03/04 03:27:47;;;;;;;1999.90;999.90;;;18.80;96.80;;;;;;5052763;28;20188;-42
2021/03/04 03:30:23;;;;;;;1999.90;999.90;;;18.80;96.70;;;;;;5052839;28;20180;-42
2021/03/04 03:33:07;;;;;;;1999.90;999.90;;;18.90;96.60;;;;;;5052600;28;20224;-42
2021/03/04 03:35:34;;;;;;;1999.90;999.90;;;19.00;96.30;;;;;;5052729;28;20153;-44
2021/03/04 03:38:03;;;;;;;1999.90;999.90;;;19.00;95.90;;;;;;5052694;28;20169;-41
2021/03/04 03:40:32;;;;;;;1999.90;999.90;;;19.00;95.20;;;;;;5052683;28;20255;-46
2021/03/04 03:43:01;;;;;;;1999.90;999.90;;;19.00;95.20;;;;;;5052956;28;20614;-42
2021/03/04 03:45:35;;;;;;;1999.90;999.90;;;19.00;95.30;;;;;;5052610;28;20251;-45
2021/03/04 03:48:07;;;;;;;1999.90;999.90;;;19.00;95.40;;;;;;5052646;28;20215;-42
2021/03/04 03:50:34;;;;;;;1999.90;999.90;;;19.10;95.50;;;;;;5052551;28;20173;-42
2021/03/04 03:53:02;;;;;;;1999.90;999.90;;;19.10;95.30;;;;;;5052505;28;20252;-42
2021/03/04 03:55:29;;;;;;;1999.90;999.90;;;19.10;95.60;;;;;;5052564;28;20165;-42
2021/03/04 03:57:59;;;;;;;1999.90;999.90;;;19.10;95.80;;;;;;5052492;28;20184;-42
2021/03/04 04:00:26;;;;;;;1999.90;999.90;;;19.10;95.70;;;;;;5052490;28;20169;-45
2021/03/04 04:03:01;;;;;;;1999.90;999.90;;;19.00;96.00;;;;;;5052430;28;20223;-43
2021/03/04 04:05:28;;;;;;;1999.90;999.90;;;19.00;96.10;;;;;;5052640;28;20172;-43
2021/03/04 04:07:57;;;;;;;1999.90;999.90;;;19.00;96.10;;;;;;5056272;28;20188;-42
2021/03/04 04:10:25;;;;;;;1999.90;999.90;;;19.00;96.00;;;;;;5056228;28;20624;-43
2021/03/04 04:12:52;;;;;;;1999.90;999.90;;;19.00;95.90;;;;;;5056324;28;20189;-42
2021/03/04 04:15:20;;;;;;;1999.90;999.90;;;19.10;95.60;;;;;;5056263;28;20176;-43
2021/03/04 04:17:49;;;;;;;1999.90;999.90;;;19.10;95.30;;;;;;5056210;28;20180;-47
2021/03/04 04:20:18;;;;;;;1999.90;999.90;;;19.20;95.20;;;;;;5056151;28;20177;-42
2021/03/04 04:22:47;;;;;;;1999.90;999.90;;;19.20;95.20;;;;;;5056082;28;20211;-42
2021/03/04 04:25:15;;;;;;;1999.90;999.90;;;19.30;95.00;;;;;;5055962;28;20173;-42
2021/03/04 04:27:42;;;;;;;1999.90;999.90;;;19.30;94.60;;;;;;5055830;28;20169;-42
2021/03/04 04:30:11;;;;;;;1999.90;999.90;;;19.40;94.60;;;;;;5055904;28;20173;-43
2021/03/04 04:32:37;;;;;;;1999.90;999.90;;;19.40;94.30;;;;;;5055539;28;20282;-42
2021/03/04 04:35:05;;;;;;;1999.90;999.90;;;19.40;94.30;;;;;;5055749;28;20170;-46
2021/03/04 04:37:32;;;;;;;1999.90;999.90;;;19.30;94.50;;;;;;5055640;28;20172;-42
2021/03/04 04:39:58;;;;;;;1999.90;999.90;;;19.30;94.40;;;;;;5055563;28;20659;-43
2021/03/04 04:42:27;;;;;;;1999.90;999.90;;;19.30;94.60;;;;;;5055578;28;20169;-42
2021/03/04 04:44:53;;;;;;;1999.90;999.90;;;19.30;94.40;;;;;;5055566;28;20689;-46
2021/03/04 04:47:20;;;;;;;1999.90;999.90;;;19.30;94.40;;;;;;5055622;28;20177;-42
2021/03/04 04:49:47;;;;;;;1999.90;999.90;;;19.30;94.30;;;;;;5055597;28;20180;-42
2021/03/04 04:52:14;;;;;;;1999.90;999.90;;;19.40;94.20;;;;;;5055389;28;20205;-42
2021/03/04 04:54:41;;;;;;;1999.90;999.90;;;19.40;94.10;;;;;;5055308;28;20636;-42
2021/03/04 04:57:08;;;;;;;1999.90;999.90;;;19.40;94.10;;;;;;5055274;28;20519;-43
2021/03/04 04:59:35;;;;;;;1999.90;999.90;;;19.50;94.00;;;;;;5055312;28;20594;-43
2021/03/04 05:02:03;;;;;;;1999.90;999.90;;;19.50;93.80;;;;;;5055490;28;20526;-43
2021/03/04 05:04:29;;;;;;;1999.90;999.90;;;19.60;93.40;;;;;;5055254;28;20173;-42
2021/03/04 05:06:56;;;;;;;1999.90;999.90;;;19.60;93.30;;;;;;5054934;28;20173;-42
2021/03/04 05:09:24;;;;;;;1999.90;999.90;;;19.60;93.10;;;;;;5055027;28;20173;-42
2021/03/04 05:11:50;;;;;;;1999.90;999.90;;;19.50;93.20;;;;;;5055233;28;20201;-42
2021/03/04 05:14:17;;;;;;;1999.90;999.90;;;19.50;92.90;;;;;;5054971;28;20566;-42
2021/03/04 05:16:44;;;;;;;1999.90;999.90;;;19.50;92.70;;;;;;5054524;28;20177;-42
2021/03/04 05:19:11;;;;;;;1999.90;999.90;;;19.60;92.80;;;;;;5054763;28;20165;-42
2021/03/04 05:21:38;;;;;;;1999.90;999.90;;;19.70;92.50;;;;;;5054898;28;20651;-42
2021/03/04 05:24:05;;;;;;;1999.90;999.90;;;19.70;92.40;;;;;;5054713;28;20216;-44
2021/03/04 05:26:32;;;;;;;1999.90;999.90;;;19.70;92.20;;;;;;5054594;28;20562;-44
2021/03/04 05:28:59;;;;;;;1999.90;999.90;;;19.60;92.40;;;;;;5054665;28;20220;-42
2021/03/04 05:31:25;;;;;;;1999.90;999.90;;;19.70;92.40;;;;;;5054451;28;20737;-43
2021/03/04 05:33:52;;;;;;;1999.90;999.90;;;19.80;92.20;;;;;;5054840;28;20164;-52
2021/03/04 05:36:19;;;;;;;1999.90;999.90;;;19.90;92.10;;;;;;5054362;28;20222;-43
2021/03/04 05:38:46;;;;;;;1999.90;999.90;;;19.90;92.00;;;;;;5054081;28;20173;-43
2021/03/04 05:41:16;;;;;;;1999.90;999.90;;;19.90;91.90;;;;;;5053820;28;20299;-42
2021/03/04 05:43:43;;;;;;;1999.90;999.90;;;19.90;92.00;;;;;;5053914;28;20184;-43
2021/03/04 05:46:10;;;;;;;1999.90;999.90;;;20.00;91.90;;;;;;5053961;28;20525;-44
2021/03/04 05:48:38;;;;;;;1999.90;999.90;;;20.00;91.80;;;;;;5054008;28;20666;-42
2021/03/04 05:51:07;;;;;;;1999.90;999.90;;;20.10;91.70;;;;;;5053819;28;20306;-42
2021/03/04 05:53:34;;;;;;;1999.90;999.90;;;20.20;91.30;;;;;;5053975;28;20161;-42
2021/03/04 05:56:01;;;;;;;1999.90;999.90;;;20.30;91.00;;;;;;5053895;28;20173;-45
2021/03/04 05:58:29;;;;;;;1999.90;999.90;;;20.30;91.00;;;;;;5053710;28;20173;-56
2021/03/04 06:00:58;;;;;;;1999.90;999.90;;;20.40;89.50;;;;;;5053830;28;20214;-58
2021/03/04 06:03:25;;;;;;;1999.90;999.90;;;20.60;87.90;;;;;;5053548;28;20177;-43
2021/03/04 06:05:53;;;;;;;1999.90;999.90;;;20.70;90.00;;;;;;5053641;28;20177;-55
2021/03/04 06:08:19;;;;;;;1999.90;999.90;;;20.80;89.20;;;;;;5053519;28;20173;-42
2021/03/04 06:10:50;;;;;;;1999.90;999.90;;;20.80;88.90;;;;;;5052374;28;20165;-60
2021/03/04 06:13:17;;;;;;;1999.90;999.90;;;21.00;88.30;;;;;;5051529;28;20180;-59
2021/03/04 06:15:44;;;;;;;1999.90;999.90;;;21.20;87.50;;;;;;5052329;28;20185;-56
2021/03/04 06:18:11;;;;;;;1999.90;999.90;;;21.30;86.70;;;;;;5053098;28;20185;-57
2021/03/04 06:20:40;;;;;;;1999.90;999.90;;;21.20;86.70;;;;;;5053018;28;20223;-45
2021/03/04 06:23:07;;;;;;;1999.90;999.90;;;21.10;86.70;;;;;;5052696;28;20230;-47
2021/03/04 06:25:35;;;;;;;1999.90;999.90;;;21.10;87.10;;;;;;5053281;28;20196;-48
2021/03/04 06:28:06;;;;;;;1999.90;999.90;;;21.30;86.20;;;;;;5052461;28;20172;-58
2021/03/04 06:30:38;;;;;;;1999.90;999.90;;;21.50;85.70;;;;;;5052073;28;20661;-51
2021/03/04 06:33:06;;;;;;;1999.90;999.90;;;21.50;85.30;;;;;;5052525;28;20303;-47
2021/03/04 06:35:34;;;;;;;1999.90;999.90;;;21.50;86.50;;;;;;5053004;28;20697;-52
2021/03/04 06:38:17;;;;;;;1999.90;999.90;;;21.60;86.10;;;;;;5052652;28;20185;-49
2021/03/04 06:40:44;;;;;;;1999.90;999.90;;;21.70;86.00;;;;;;5052517;28;20176;-57
2021/03/04 06:43:25;;;;;;;1999.90;999.90;;;21.70;86.40;;;;;;5053038;28;20628;-50
2021/03/04 06:46:05;;;;;;;1999.90;999.90;;;21.80;86.40;;;;;;5052700;28;20201;-55
2021/03/04 06:48:32;;;;;;;1999.90;999.90;;;21.70;90.20;;;;;;5052774;28;20219;-49
2021/03/04 06:51:00;;;;;;;1999.90;999.90;;;21.50;91.40;;;;;;5052617;28;20679;-47
2021/03/04 06:53:31;;;;;;;1999.90;999.90;;;21.20;92.00;;;;;;5052855;28;20534;-52
2021/03/04 06:56:05;;;;;;;1999.90;999.90;;;21.00;92.90;;;;;;5048937;28;20166;-53
2021/03/04 06:58:38;;;;;;;1999.90;999.90;;;20.80;93.30;;;;;;5051569;28;20321;-44
2021/03/04 07:01:11;;;;;;;1999.90;999.90;;;20.50;93.60;;;;;;5051637;28;20620;-49
2021/03/04 07:03:42;;;;;;;1999.90;999.90;;;20.50;93.80;;;;;;5050556;28;20223;-40
2021/03/04 07:06:12;;;;;;;1999.90;999.90;;;20.50;94.20;;;;;;5051573;28;20180;-60
2021/03/04 07:08:41;;;;;;;1999.90;999.90;;;20.50;93.90;;;;;;5052495;28;20173;-59
2021/03/04 07:11:10;;;;;;;1999.90;999.90;;;20.60;94.30;;;;;;5051300;28;20196;-40
2021/03/04 07:13:39;;;;;;;1999.90;999.90;;;20.60;94.20;;;;;;5051167;28;20212;-40
2021/03/04 07:16:20;;;;;;;1999.90;999.90;;;20.50;94.30;;;;;;5051931;28;20535;-39
2021/03/04 07:18:58;;;;;;;1999.90;999.90;;;20.60;94.00;;;;;;5051719;28;20176;-44
2021/03/04 07:21:27;;;;;;;1999.90;999.90;;;20.80;93.60;;;;;;5051496;28;20177;-39
2021/03/04 07:23:54;;;;;;;1999.90;999.90;;;20.90;93.00;;;;;;5051802;28;20601;-41
2021/03/04 07:26:21;;;;;;;1999.90;999.90;;;20.90;92.90;;;;;;5051521;28;20179;-43
2021/03/04 07:28:50;;;;;;;1999.90;999.90;;;21.10;92.70;;;;;;5051420;28;20180;-41
2021/03/04 07:31:17;;;;;;;1999.90;999.90;;;21.40;91.50;;;;;;5050281;28;20265;-63
2021/03/04 07:33:49;;;;;;;1999.90;999.90;;;21.60;90.90;;;;;;5052195;28;20164;-45
2021/03/04 07:36:21;;;;;;;1999.90;999.90;;;21.70;90.90;;;;;;5051399;28;20271;-54
2021/03/04 07:38:58;;;;;;;1999.90;999.90;;;21.60;90.70;;;;;;5048992;28;20165;-44
2021/03/04 07:41:42;;;;;;;1999.90;999.90;;;21.90;90.70;;;;;;5055414;28;20160;-44
2021/03/04 07:44:22;;;;;;;1999.90;999.90;;;22.30;88.40;;;;;;5055030;28;20226;-45
2021/03/04 07:46:54;;;;;;;1999.90;999.90;;;22.60;86.90;;;;;;5053897;28;20561;-43
2021/03/04 07:49:38;;;;;;;1999.90;999.90;;;22.80;84.10;;;;;;5053305;28;20177;-43
2021/03/04 07:52:17;;;;;;;1999.90;999.90;;;23.00;84.10;;;;;;5054740;28;20197;-46
2021/03/04 07:54:50;;;;;;;1999.90;999.90;;;23.20;81.60;;;;;;5050922;28;20543;-45
2021/03/04 07:57:23;;;;;;;1999.90;999.90;;;22.70;82.70;;;;;;5054989;28;20458;-45
2021/03/04 07:59:57;;;;;;;1999.90;999.90;;;22.60;82.10;;;;;;5054838;28;20611;-46
2021/03/04 08:02:32;;;;;;;1999.90;999.90;;;22.70;83.00;;;;;;5054916;28;20244;-47
2021/03/04 08:05:17;;;;;;;1999.90;999.90;;;22.30;81.40;;;;;;5055699;28;20173;-44
2021/03/04 08:07:51;;;;;;;1999.90;999.90;;;21.70;84.00;;;;;;5053920;28;20187;-47
2021/03/04 08:10:20;;;;;;;1999.90;999.90;;;21.30;86.70;;;;;;5054079;28;20177;-43
2021/03/04 08:12:52;;;;;;;1999.90;999.90;;;21.00;88.90;;;;;;5055443;28;20201;-60
2021/03/04 08:15:21;;;;;;;1999.90;999.90;;;21.00;88.10;;;;;;5055468;28;20169;-52
2021/03/04 08:17:48;;;;;;;1999.90;999.90;;;21.00;87.80;;;;;;5054392;28;20639;-56
2021/03/04 08:20:17;;;;;;;1999.90;999.90;;;21.10;87.30;;;;;;5053131;28;20640;-50
2021/03/04 08:22:52;;;;;;;1999.90;999.90;;;21.00;88.50;;;;;;5053707;28;20256;-45
2021/03/04 08:25:27;;;;;;;1999.90;999.90;;;21.00;88.50;;;;;;5054490;28;20172;-43
2021/03/04 08:27:55;;;;;;;1999.90;999.90;;;21.40;86.70;;;;;;5055169;28;20176;-43
2021/03/04 08:30:32;;;;;;;1999.90;999.90;;;21.90;84.50;;;;;;5054725;28;20173;-44
2021/03/04 08:33:02;;;;;;;1999.90;999.90;;;22.50;82.00;;;;;;5055030;28;20648;-45
2021/03/04 08:35:29;;;;;;;1999.90;999.90;;;22.60;80.00;;;;;;5054618;28;20173;-44
2021/03/04 08:37:59;;;;;;;1999.90;999.90;;;22.90;79.00;;;;;;5054820;28;20176;-47
2021/03/04 08:40:26;;;;;;;1999.90;999.90;;;22.50;80.40;;;;;;5053511;28;20595;-43
2021/03/04 08:42:53;;;;;;;1999.90;999.90;;;22.50;82.10;;;;;;5054261;28;20231;-53
2021/03/04 08:45:32;;;;;;;1999.90;999.90;;;22.70;80.50;;;;;;5055067;28;20215;-41
2021/03/04 08:48:05;;;;;;;1999.90;999.90;;;22.70;80.80;;;;;;5054286;28;20234;-44
2021/03/04 08:50:47;;;;;;;1999.90;999.90;;;22.50;80.80;;;;;;5053002;28;20248;-51
2021/03/04 08:53:19;;;;;;;1999.90;999.90;;;22.70;80.40;;;;;;5044923;28;20169;-50
2021/03/04 08:55:56;;;;;;;1999.90;999.90;;;22.60;80.60;;;;;;5053155;28;20173;-44
2021/03/04 08:58:26;;;;;;;1999.90;999.90;;;22.90;80.30;;;;;;5035063;28;20166;-46
2021/03/04 09:01:04;;;;;;;1999.90;999.90;;;23.50;79.60;;;;;;5034692;28;20169;-45
2021/03/04 09:03:42;;;;;;;1999.90;999.90;;;23.80;76.50;;;;;;5053520;28;20203;-51
2021/03/04 09:06:10;;;;;;;1999.90;999.90;;;23.80;76.00;;;;;;5054324;28;20595;-48
2021/03/04 09:08:44;;;;;;;1999.90;999.90;;;23.70;76.50;;;;;;5054040;28;20567;-46
2021/03/04 09:11:23;;;;;;;1999.90;999.90;;;24.00;76.50;;;;;;5054293;28;20664;-46
2021/03/04 09:13:50;;;;;;;1999.90;999.90;;;24.70;73.20;;;;;;5054652;28;20679;-47
2021/03/04 09:16:17;;;;;;;1999.90;999.90;;;24.90;72.20;;;;;;5054078;28;20499;-50
2021/03/04 09:18:46;;;;;;;1999.90;999.90;;;24.40;72.70;;;;;;5053355;28;20607;-49
2021/03/04 09:21:17;;;;;;;1999.90;999.90;;;24.40;72.90;;;;;;5054502;28;20165;-54
2021/03/04 09:23:44;;;;;;;1999.90;999.90;;;25.50;71.50;;;;;;5053907;28;20165;-53
2021/03/04 09:26:12;;;;;;;1999.90;999.90;;;26.20;64.50;;;;;;5054548;28;20172;-62
2021/03/04 09:28:41;;;;;;;1999.90;999.90;;;26.10;65.70;;;;;;5053776;28;20201;-58
2021/03/04 09:31:16;;;;;;;1999.90;999.90;;;26.10;65.60;;;;;;5054658;28;20197;-62
2021/03/04 09:33:43;;;;;;;1999.90;999.90;;;25.70;66.00;;;;;;5054848;28;20180;-54
2021/03/04 09:36:10;;;;;;;1999.90;999.90;;;25.50;66.20;;;;;;5054223;28;20165;-51
2021/03/04 09:38:38;;;;;;;1999.90;999.90;;;25.60;65.80;;;;;;5048735;28;20208;-58
2021/03/04 09:41:14;;;;;;;1999.90;999.90;;;26.00;64.10;;;;;;5034464;28;20532;-57
2021/03/04 09:43:43;;;;;;;1999.90;999.90;;;26.50;62.40;;;;;;5053360;28;20686;-62
2021/03/04 09:46:10;;;;;;;1999.90;999.90;;;26.50;62.40;;;;;;5035870;28;20174;-52
2021/03/04 09:48:39;;;;;;;1999.90;999.90;;;26.90;60.10;;;;;;5053806;28;20173;-61
2021/03/04 09:51:07;;;;;;;1999.90;999.90;;;26.50;60.70;;;;;;5052781;28;20641;-54
2021/03/04 09:53:48;;;;;;;1999.90;999.90;;;25.80;63.30;;;;;;5052703;28;20653;-44
2021/03/04 09:56:23;;;;;;;1999.90;999.90;;;26.70;61.20;;;;;;5053287;28;20173;-44
2021/03/04 09:58:50;;;;;;;1999.90;999.90;;;26.30;62.30;;;;;;5053655;28;20165;-46
2021/03/04 10:01:27;;;;;;;1999.90;999.90;;;27.50;59.20;;;;;;5053528;28;20184;-60
2021/03/04 10:04:00;;;;;;;1999.90;999.90;;;28.00;57.10;;;;;;5052114;28;20157;-57
2021/03/04 10:06:27;;;;;;;1999.90;999.90;;;28.40;56.40;;;;;;5051580;28;20632;-43
2021/03/04 10:08:55;;;;;;;1999.90;999.90;;;28.90;54.70;;;;;;5052444;28;20550;-49
2021/03/04 10:11:23;;;;;;;1999.90;999.90;;;29.50;52.90;;;;;;5052995;28;20209;-52
2021/03/04 10:13:51;;;;;;;1999.90;999.90;;;29.80;51.30;;;;;;5053430;28;20516;-52
2021/03/04 10:16:18;;;;;;;1999.90;999.90;;;29.80;51.00;;;;;;5037960;28;20177;-52
2021/03/04 10:18:47;;;;;;;1999.90;999.90;;;30.00;50.60;;;;;;5052846;28;20169;-55
2021/03/04 10:21:15;;;;;;;1999.90;999.90;;;30.10;50.00;;;;;;5053426;28;20189;-49
2021/03/04 10:23:45;;;;;;;1999.90;999.90;;;29.50;51.00;;;;;;5053416;28;20650;-47
2021/03/04 10:26:12;;;;;;;1999.90;999.90;;;28.90;51.40;;;;;;5053252;28;20161;-58
2021/03/04 10:28:38;;;;;;;1999.90;999.90;;;27.50;54.70;;;;;;5053065;28;20244;-55
2021/03/04 10:31:05;;;;;;;1999.90;999.90;;;26.90;55.80;;;;;;5052862;28;20199;-47
2021/03/04 10:33:32;;;;;;;1999.90;999.90;;;27.30;55.40;;;;;;5052139;28;20217;-58
2021/03/04 10:35:59;;;;;;;1999.90;999.90;;;28.10;53.40;;;;;;5052728;28;20201;-48
2021/03/04 10:38:25;;;;;;;1999.90;999.90;;;28.10;53.70;;;;;;5052733;28;20219;-56
2021/03/04 10:40:52;;;;;;;1999.90;999.90;;;27.70;54.00;;;;;;5053160;28;20211;-54
2021/03/04 10:43:19;;;;;;;1999.90;999.90;;;27.60;54.80;;;;;;5052758;28;20165;-54
2021/03/04 10:45:46;;;;;;;1999.90;999.90;;;27.40;55.70;;;;;;5052599;28;20196;-48
2021/03/04 10:48:13;;;;;;;1999.90;999.90;;;27.50;56.20;;;;;;5052872;28;20188;-52
2021/03/04 10:50:40;;;;;;;1999.90;999.90;;;27.60;55.50;;;;;;5054089;28;20222;-47
2021/03/04 10:53:07;;;;;;;1999.90;999.90;;;28.00;53.90;;;;;;5051375;28;20192;-50
2021/03/04 10:55:33;;;;;;;1999.90;999.90;;;27.90;53.80;;;;;;5053027;28;20176;-45
2021/03/04 10:58:00;;;;;;;1999.90;999.90;;;27.00;55.10;;;;;;5051444;28;20276;-48
2021/03/04 11:00:27;;;;;;;1999.90;999.90;;;27.10;55.30;;;;;;5054315;28;20169;-44
2021/03/04 11:02:54;;;;;;;1999.90;999.90;;;27.10;55.50;;;;;;5053325;28;20703;-47
2021/03/04 11:05:21;;;;;;;1999.90;999.90;;;26.90;56.40;;;;;;5052949;28;20177;-44
2021/03/04 11:07:47;;;;;;;1999.90;999.90;;;26.70;56.30;;;;;;5053029;28;20173;-48
2021/03/04 11:10:15;;;;;;;1999.90;999.90;;;26.70;56.50;;;;;;5052101;28;20169;-46
2021/03/04 11:12:42;;;;;;;1999.90;999.90;;;26.60;56.60;;;;;;5052460;28;20205;-43
2021/03/04 11:15:10;;;;;;;1999.90;999.90;;;26.50;57.10;;;;;;5051922;28;20180;-47
2021/03/04 11:17:36;;;;;;;1999.90;999.90;;;26.40;56.60;;;;;;5052465;28;20252;-45
2021/03/04 11:20:05;;;;;;;1999.90;999.90;;;25.90;57.10;;;;;;5051882;28;20172;-55
2021/03/04 11:22:31;;;;;;;1999.90;999.90;;;25.80;57.50;;;;;;5051940;28;20632;-50
2021/03/04 11:24:58;;;;;;;1999.90;999.90;;;25.50;57.20;;;;;;5051548;28;20181;-55
2021/03/04 11:27:25;;;;;;;1999.90;999.90;;;25.20;57.70;;;;;;5051770;28;20177;-53
2021/03/04 11:29:51;;;;;;;1999.90;999.90;;;25.20;57.10;;;;;;5042204;28;20559;-55
2021/03/04 11:32:19;;;;;;;1999.90;999.90;;;25.30;57.50;;;;;;5052107;28;20275;-45
2021/03/04 11:34:46;;;;;;;1999.90;999.90;;;25.30;57.00;;;;;;5052446;28;20161;-57
2021/03/04 11:37:12;;;;;;;1999.90;999.90;;;25.60;56.30;;;;;;5052287;28;20172;-45
2021/03/04 11:39:39;;;;;;;1999.90;999.90;;;26.00;55.00;;;;;;5051774;28;20651;-45
2021/03/04 11:42:06;;;;;;;1999.90;999.90;;;26.30;54.40;;;;;;5051956;28;20639;-51
2021/03/04 11:44:33;;;;;;;1999.90;999.90;;;26.20;53.60;;;;;;5051777;28;20627;-55
2021/03/04 11:47:00;;;;;;;1999.90;999.90;;;25.80;54.50;;;;;;5052008;28;20184;-52
2021/03/04 11:49:27;;;;;;;1999.90;999.90;;;25.60;54.70;;;;;;5052335;28;20211;-56
2021/03/04 11:51:54;;;;;;;1999.90;999.90;;;25.60;55.00;;;;;;5052166;28;20541;-51
2021/03/04 11:54:20;;;;;;;1999.90;999.90;;;25.80;54.50;;;;;;5051442;28;20188;-52
2021/03/04 11:56:47;;;;;;;1999.90;999.90;;;25.90;54.70;;;;;;5052350;28;20651;-53
2021/03/04 11:59:14;;;;;;;1999.90;999.90;;;26.20;53.90;;;;;;5051643;28;20173;-50
2021/03/04 12:01:43;;;;;;;1999.90;999.90;;;26.40;53.30;;;;;;5052112;28;20161;-60
2021/03/04 12:04:10;;;;;;;1999.90;999.90;;;26.60;53.20;;;;;;5051999;28;20181;-51
2021/03/04 12:06:37;;;;;;;1999.90;999.90;;;26.90;52.40;;;;;;5051204;28;20613;-50
2021/03/04 12:09:05;;;;;;;1999.90;999.90;;;27.10;51.80;;;;;;5049914;28;20204;-51